sensor_id;sensor_type;location;lat;lon;timestamp;pressure;altitude;pressure_sealevel;temperature;humidity
62948;BME280;51940;52.126;-0.994;2023-03-04T00:00:22;102061.30;;;4.00;100.00
62948;BME280;51940;52.126;-0.994;2023-03-04T00:02:47;102062.35;;;4.00;100.00
62948;BME280;51940;52.126;-0.994;2023-03-04T00:05:12;102060.58;;;3.99;100.00
62948;BME280;51940;52.126;-0.994;2023-03-04T00:07:38;102060.02;;;3.98;100.00
62948;BME280;51940;52.126;-0.994;2023-03-04T00:10:03;102060.34;;;3.96;100.00
62948;BME280;51940;52.126;-0.994;2023-03-04T00:12:29;102062.10;;;3.96;100.00
62948;BME280;51940;52.126;-0.994;2023-03-04T00:14:54;102059.79;;;3.96;100.00
62948;BME280;51940;52.126;-0.994;2023-03-04T00:17:20;102057.66;;;3.95;100.00
62948;BME280;51940;52.126;-0.994;2023-03-04T00:19:45;102056.59;;;3.95;100.00
62948;BME280;51940;52.126;-0.994;2023-03-04T00:22:10;102058.20;;;3.95;100.00
62948;BME280;51940;52.126;-0.994;2023-03-04T00:24:35;102061.02;;;3.95;100.00
62948;BME280;51940;52.126;-0.994;2023-03-04T00:27:01;102062.94;;;3.94;100.00
62948;BME280;51940;52.126;-0.994;2023-03-04T00:29:26;102063.64;;;3.94;100.00
62948;BME280;51940;52.126;-0.994;2023-03-04T00:31:51;102062.77;;;3.94;100.00
62948;BME280;51940;52.126;-0.994;2023-03-04T00:34:17;102061.88;;;3.94;100.00
62948;BME280;51940;52.126;-0.994;2023-03-04T00:36:42;102064.35;;;3.94;100.00
62948;BME280;51940;52.126;-0.994;2023-03-04T00:39:09;102066.80;;;3.93;100.00
62948;BME280;51940;52.126;-0.994;2023-03-04T00:41:34;102068.00;;;3.93;100.00
62948;BME280;51940;52.126;-0.994;2023-03-04T00:43:59;102064.27;;;3.92;100.00
62948;BME280;51940;52.126;-0.994;2023-03-04T00:46:24;102061.77;;;3.92;100.00
62948;BME280;51940;52.126;-0.994;2023-03-04T00:48:50;102061.05;;;3.91;100.00
62948;BME280;51940;52.126;-0.994;2023-03-04T00:51:15;102061.91;;;3.90;100.00
62948;BME280;51940;52.126;-0.994;2023-03-04T00:53:40;102062.97;;;3.90;100.00
62948;BME280;51940;52.126;-0.994;2023-03-04T00:56:05;102066.49;;;3.90;100.00
62948;BME280;51940;52.126;-0.994;2023-03-04T00:58:31;102071.44;;;3.90;100.00
62948;BME280;51940;52.126;-0.994;2023-03-04T01:00:56;102073.71;;;3.89;100.00
62948;BME280;51940;52.126;-0.994;2023-03-04T01:03:21;102071.56;;;3.88;100.00
62948;BME280;51940;52.126;-0.994;2023-03-04T01:05:47;102076.65;;;3.87;100.00
62948;BME280;51940;52.126;-0.994;2023-03-04T01:08:12;102076.45;;;3.86;100.00
62948;BME280;51940;52.126;-0.994;2023-03-04T01:10:37;102069.90;;;3.86;100.00
62948;BME280;51940;52.126;-0.994;2023-03-04T01:13:02;102072.16;;;3.85;100.00
62948;BME280;51940;52.126;-0.994;2023-03-04T01:15:28;102072.13;;;3.84;100.00
62948;BME280;51940;52.126;-0.994;2023-03-04T01:17:56;102075.48;;;3.84;100.00
62948;BME280;51940;52.126;-0.994;2023-03-04T01:20:21;102069.61;;;3.83;100.00
62948;BME280;51940;52.126;-0.994;2023-03-04T01:22:47;102072.06;;;3.82;100.00
62948;BME280;51940;52.126;-0.994;2023-03-04T01:25:12;102070.83;;;3.81;100.00
62948;BME280;51940;52.126;-0.994;2023-03-04T01:27:37;102070.80;;;3.81;100.00
62948;BME280;51940;52.126;-0.994;2023-03-04T01:30:03;102072.56;;;3.81;100.00
62948;BME280;51940;52.126;-0.994;2023-03-04T01:32:30;102067.59;;;3.79;100.00
62948;BME280;51940;52.126;-0.994;2023-03-04T01:34:55;102065.65;;;3.80;100.00
62948;BME280;51940;52.126;-0.994;2023-03-04T01:37:20;102063.20;;;3.80;100.00
62948;BME280;51940;52.126;-0.994;2023-03-04T01:39:45;102061.09;;;3.81;100.00
62948;BME280;51940;52.126;-0.994;2023-03-04T01:42:16;102060.73;;;3.81;100.00
62948;BME280;51940;52.126;-0.994;2023-03-04T01:44:43;102056.67;;;3.80;100.00
62948;BME280;51940;52.126;-0.994;2023-03-04T01:47:09;102058.64;;;3.81;100.00
62948;BME280;51940;52.126;-0.994;2023-03-04T01:49:34;102049.46;;;3.81;100.00
62948;BME280;51940;52.126;-0.994;2023-03-04T01:51:59;102045.94;;;3.82;100.00
62948;BME280;51940;52.126;-0.994;2023-03-04T01:54:24;102045.41;;;3.81;100.00
62948;BME280;51940;52.126;-0.994;2023-03-04T01:56:50;102045.95;;;3.82;100.00
62948;BME280;51940;52.126;-0.994;2023-03-04T02:01:42;102037.48;;;3.82;100.00
62948;BME280;51940;52.126;-0.994;2023-03-04T02:04:08;102036.41;;;3.81;100.00
62948;BME280;51940;52.126;-0.994;2023-03-04T02:06:35;102032.30;;;3.80;100.00
62948;BME280;51940;52.126;-0.994;2023-03-04T02:09:01;102032.48;;;3.79;100.00
62948;BME280;51940;52.126;-0.994;2023-03-04T02:11:26;102029.27;;;3.79;100.00
62948;BME280;51940;52.126;-0.994;2023-03-04T02:13:51;102026.43;;;3.78;100.00
62948;BME280;51940;52.126;-0.994;2023-03-04T02:16:17;102026.92;;;3.77;100.00
62948;BME280;51940;52.126;-0.994;2023-03-04T02:18:42;102023.73;;;3.76;100.00
62948;BME280;51940;52.126;-0.994;2023-03-04T02:24:02;102019.43;;;3.74;100.00
62948;BME280;51940;52.126;-0.994;2023-03-04T02:26:25;102019.57;;;3.73;100.00
62948;BME280;51940;52.126;-0.994;2023-03-04T02:28:52;102013.02;;;3.72;100.00
62948;BME280;51940;52.126;-0.994;2023-03-04T02:33:49;102009.13;;;3.72;100.00
62948;BME280;51940;52.126;-0.994;2023-03-04T02:36:14;102009.46;;;3.71;100.00
62948;BME280;51940;52.126;-0.994;2023-03-04T02:38:40;102004.90;;;3.72;100.00
62948;BME280;51940;52.126;-0.994;2023-03-04T02:41:05;102005.79;;;3.72;100.00
62948;BME280;51940;52.126;-0.994;2023-03-04T02:43:37;102009.88;;;3.74;100.00
62948;BME280;51940;52.126;-0.994;2023-03-04T02:46:02;102006.70;;;3.73;100.00
62948;BME280;51940;52.126;-0.994;2023-03-04T02:48:27;102008.30;;;3.74;100.00
62948;BME280;51940;52.126;-0.994;2023-03-04T02:50:53;102010.96;;;3.75;100.00
62948;BME280;51940;52.126;-0.994;2023-03-04T02:53:19;102006.36;;;3.74;100.00
62948;BME280;51940;52.126;-0.994;2023-03-04T02:55:49;102002.47;;;3.74;100.00
62948;BME280;51940;52.126;-0.994;2023-03-04T02:58:15;101996.11;;;3.73;100.00
62948;BME280;51940;52.126;-0.994;2023-03-04T03:00:40;102000.14;;;3.72;100.00
62948;BME280;51940;52.126;-0.994;2023-03-04T03:03:06;101997.63;;;3.71;100.00
62948;BME280;51940;52.126;-0.994;2023-03-04T03:05:32;101997.79;;;3.70;100.00
62948;BME280;51940;52.126;-0.994;2023-03-04T03:07:57;102000.59;;;3.69;100.00
62948;BME280;51940;52.126;-0.994;2023-03-04T03:10:23;101998.80;;;3.68;100.00
62948;BME280;51940;52.126;-0.994;2023-03-04T03:12:48;102002.59;;;3.66;100.00
62948;BME280;51940;52.126;-0.994;2023-03-04T03:15:13;102003.79;;;3.65;100.00
62948;BME280;51940;52.126;-0.994;2023-03-04T03:17:38;102000.57;;;3.63;100.00
62948;BME280;51940;52.126;-0.994;2023-03-04T03:20:04;101995.95;;;3.62;100.00
62948;BME280;51940;52.126;-0.994;2023-03-04T03:22:29;101996.48;;;3.61;100.00
62948;BME280;51940;52.126;-0.994;2023-03-04T03:24:54;101997.16;;;3.61;100.00
62948;BME280;51940;52.126;-0.994;2023-03-04T03:27:20;101996.80;;;3.60;100.00
62948;BME280;51940;52.126;-0.994;2023-03-04T03:29:45;101991.64;;;3.59;100.00
62948;BME280;51940;52.126;-0.994;2023-03-04T03:32:10;101991.77;;;3.58;100.00
62948;BME280;51940;52.126;-0.994;2023-03-04T03:34:35;101992.98;;;3.58;100.00
62948;BME280;51940;52.126;-0.994;2023-03-04T03:37:01;101992.25;;;3.56;100.00
62948;BME280;51940;52.126;-0.994;2023-03-04T03:39:26;101988.67;;;3.55;100.00
62948;BME280;51940;52.126;-0.994;2023-03-04T03:41:51;101993.59;;;3.54;100.00
62948;BME280;51940;52.126;-0.994;2023-03-04T03:44:17;101994.63;;;3.53;100.00
62948;BME280;51940;52.126;-0.994;2023-03-04T03:46:42;101995.50;;;3.53;100.00
62948;BME280;51940;52.126;-0.994;2023-03-04T03:49:07;101991.89;;;3.50;100.00
62948;BME280;51940;52.126;-0.994;2023-03-04T03:51:32;101991.50;;;3.50;100.00
62948;BME280;51940;52.126;-0.994;2023-03-04T03:53:58;101996.41;;;3.49;100.00
62948;BME280;51940;52.126;-0.994;2023-03-04T03:56:23;101993.73;;;3.48;100.00
62948;BME280;51940;52.126;-0.994;2023-03-04T03:58:48;101991.75;;;3.46;100.00
62948;BME280;51940;52.126;-0.994;2023-03-04T04:01:13;101989.98;;;3.46;100.00
62948;BME280;51940;52.126;-0.994;2023-03-04T04:03:39;101988.20;;;3.45;100.00
62948;BME280;51940;52.126;-0.994;2023-03-04T04:06:05;101986.95;;;3.45;100.00
62948;BME280;51940;52.126;-0.994;2023-03-04T04:08:30;101983.23;;;3.44;100.00
62948;BME280;51940;52.126;-0.994;2023-03-04T04:10:57;101986.23;;;3.44;100.00
62948;BME280;51940;52.126;-0.994;2023-03-04T04:13:23;101982.14;;;3.43;100.00
62948;BME280;51940;52.126;-0.994;2023-03-04T04:15:49;101984.06;;;3.42;100.00
62948;BME280;51940;52.126;-0.994;2023-03-04T04:18:15;101978.59;;;3.42;100.00
62948;BME280;51940;52.126;-0.994;2023-03-04T04:20:40;101980.14;;;3.41;100.00
62948;BME280;51940;52.126;-0.994;2023-03-04T04:23:05;101981.70;;;3.40;100.00
62948;BME280;51940;52.126;-0.994;2023-03-04T04:25:31;101985.75;;;3.40;100.00
62948;BME280;51940;52.126;-0.994;2023-03-04T04:27:56;101986.64;;;3.40;100.00
62948;BME280;51940;52.126;-0.994;2023-03-04T04:30:21;101983.80;;;3.39;100.00
62948;BME280;51940;52.126;-0.994;2023-03-04T04:32:47;101988.74;;;3.40;100.00
62948;BME280;51940;52.126;-0.994;2023-03-04T04:35:12;101989.08;;;3.39;100.00
62948;BME280;51940;52.126;-0.994;2023-03-04T04:37:37;101992.79;;;3.39;100.00
62948;BME280;51940;52.126;-0.994;2023-03-04T04:40:03;101995.78;;;3.39;100.00
62948;BME280;51940;52.126;-0.994;2023-03-04T04:42:28;101998.23;;;3.38;100.00
62948;BME280;51940;52.126;-0.994;2023-03-04T04:44:53;101993.64;;;3.38;100.00
62948;BME280;51940;52.126;-0.994;2023-03-04T04:47:19;102001.57;;;3.38;100.00
62948;BME280;51940;52.126;-0.994;2023-03-04T04:49:44;102003.67;;;3.37;100.00
62948;BME280;51940;52.126;-0.994;2023-03-04T04:52:09;102005.24;;;3.37;100.00
62948;BME280;51940;52.126;-0.994;2023-03-04T04:54:35;102007.34;;;3.36;100.00
62948;BME280;51940;52.126;-0.994;2023-03-04T04:57:01;102004.34;;;3.36;100.00
62948;BME280;51940;52.126;-0.994;2023-03-04T04:59:26;102004.30;;;3.35;100.00
62948;BME280;51940;52.126;-0.994;2023-03-04T05:01:51;102001.64;;;3.34;100.00
62948;BME280;51940;52.126;-0.994;2023-03-04T05:04:17;102006.77;;;3.35;100.00
62948;BME280;51940;52.126;-0.994;2023-03-04T05:06:42;102008.52;;;3.34;100.00
62948;BME280;51940;52.126;-0.994;2023-03-04T05:09:08;102009.56;;;3.33;100.00
62948;BME280;51940;52.126;-0.994;2023-03-04T05:11:33;102007.25;;;3.33;100.00
62948;BME280;51940;52.126;-0.994;2023-03-04T05:13:58;102004.60;;;3.33;100.00
62948;BME280;51940;52.126;-0.994;2023-03-04T05:16:23;102007.95;;;3.33;100.00
62948;BME280;51940;52.126;-0.994;2023-03-04T05:18:49;102011.95;;;3.32;100.00
62948;BME280;51940;52.126;-0.994;2023-03-04T05:21:14;102015.84;;;3.32;100.00
62948;BME280;51940;52.126;-0.994;2023-03-04T05:23:40;102015.83;;;3.32;100.00
62948;BME280;51940;52.126;-0.994;2023-03-04T05:26:06;102020.24;;;3.32;100.00
62948;BME280;51940;52.126;-0.994;2023-03-04T05:28:32;102021.47;;;3.32;100.00
62948;BME280;51940;52.126;-0.994;2023-03-04T05:30:57;102024.80;;;3.31;100.00
62948;BME280;51940;52.126;-0.994;2023-03-04T05:33:23;102021.79;;;3.31;100.00
62948;BME280;51940;52.126;-0.994;2023-03-04T05:35:48;102020.02;;;3.30;100.00
62948;BME280;51940;52.126;-0.994;2023-03-04T05:38:14;102027.42;;;3.30;100.00
62948;BME280;51940;52.126;-0.994;2023-03-04T05:40:41;102028.12;;;3.30;100.00
62948;BME280;51940;52.126;-0.994;2023-03-04T05:43:07;102031.81;;;3.29;100.00
62948;BME280;51940;52.126;-0.994;2023-03-04T05:45:32;102032.52;;;3.29;100.00
62948;BME280;51940;52.126;-0.994;2023-03-04T05:47:58;102030.58;;;3.30;100.00
62948;BME280;51940;52.126;-0.994;2023-03-04T05:50:23;102032.34;;;3.30;100.00
62948;BME280;51940;52.126;-0.994;2023-03-04T05:52:48;102025.81;;;3.29;100.00
62948;BME280;51940;52.126;-0.994;2023-03-04T05:55:14;102022.65;;;3.29;100.00
62948;BME280;51940;52.126;-0.994;2023-03-04T05:57:39;102022.45;;;3.29;100.00
62948;BME280;51940;52.126;-0.994;2023-03-04T06:00:05;102021.41;;;3.30;100.00
62948;BME280;51940;52.126;-0.994;2023-03-04T06:02:33;102019.10;;;3.29;100.00
62948;BME280;51940;52.126;-0.994;2023-03-04T06:04:59;102016.63;;;3.29;100.00
62948;BME280;51940;52.126;-0.994;2023-03-04T06:07:24;102014.51;;;3.29;100.00
62948;BME280;51940;52.126;-0.994;2023-03-04T06:09:49;102012.39;;;3.28;100.00
62948;BME280;51940;52.126;-0.994;2023-03-04T06:12:14;102013.09;;;3.29;100.00
62948;BME280;51940;52.126;-0.994;2023-03-04T06:14:40;102014.85;;;3.29;100.00
62948;BME280;51940;52.126;-0.994;2023-03-04T06:17:05;102012.94;;;3.29;100.00
62948;BME280;51940;52.126;-0.994;2023-03-04T06:19:30;102015.25;;;3.30;100.00
62948;BME280;51940;52.126;-0.994;2023-03-04T06:21:55;102015.77;;;3.30;100.00
62948;BME280;51940;52.126;-0.994;2023-03-04T06:24:21;102020.91;;;3.30;100.00
62948;BME280;51940;52.126;-0.994;2023-03-04T06:26:46;102020.06;;;3.32;100.00
62948;BME280;51940;52.126;-0.994;2023-03-04T06:29:11;102024.34;;;3.33;100.00
62948;BME280;51940;52.126;-0.994;2023-03-04T06:31:36;102022.46;;;3.34;100.00
62948;BME280;51940;52.126;-0.994;2023-03-04T06:34:02;102022.67;;;3.36;100.00
62948;BME280;51940;52.126;-0.994;2023-03-04T06:36:27;102023.77;;;3.37;100.00
62948;BME280;51940;52.126;-0.994;2023-03-04T06:38:53;102022.92;;;3.38;100.00
62948;BME280;51940;52.126;-0.994;2023-03-04T06:41:18;102022.59;;;3.39;100.00
62948;BME280;51940;52.126;-0.994;2023-03-04T06:43:43;102024.37;;;3.39;100.00
62948;BME280;51940;52.126;-0.994;2023-03-04T06:46:08;102025.79;;;3.40;100.00
62948;BME280;51940;52.126;-0.994;2023-03-04T06:48:34;102025.78;;;3.39;100.00
62948;BME280;51940;52.126;-0.994;2023-03-04T06:51:08;102027.71;;;3.39;100.00
62948;BME280;51940;52.126;-0.994;2023-03-04T06:53:34;102029.67;;;3.40;100.00
62948;BME280;51940;52.126;-0.994;2023-03-04T06:56:00;102029.48;;;3.40;100.00
62948;BME280;51940;52.126;-0.994;2023-03-04T06:58:26;102031.06;;;3.39;100.00
62948;BME280;51940;52.126;-0.994;2023-03-04T07:00:51;102033.17;;;3.39;100.00
62948;BME280;51940;52.126;-0.994;2023-03-04T07:03:16;102035.61;;;3.38;100.00
62948;BME280;51940;52.126;-0.994;2023-03-04T07:05:42;102035.27;;;3.38;100.00
62948;BME280;51940;52.126;-0.994;2023-03-04T07:08:07;102040.94;;;3.39;100.00
62948;BME280;51940;52.126;-0.994;2023-03-04T07:10:33;102043.43;;;3.40;100.00
62948;BME280;51940;52.126;-0.994;2023-03-04T07:12:59;102043.10;;;3.41;100.00
62948;BME280;51940;52.126;-0.994;2023-03-04T07:15:25;102042.80;;;3.42;100.00
62948;BME280;51940;52.126;-0.994;2023-03-04T07:17:50;102045.30;;;3.43;100.00
62948;BME280;51940;52.126;-0.994;2023-03-04T07:20:17;102044.23;;;3.43;100.00
62948;BME280;51940;52.126;-0.994;2023-03-04T07:22:42;102042.15;;;3.44;100.00
62948;BME280;51940;52.126;-0.994;2023-03-04T07:25:08;102043.05;;;3.45;100.00
62948;BME280;51940;52.126;-0.994;2023-03-04T07:27:33;102045.94;;;3.47;100.00
62948;BME280;51940;52.126;-0.994;2023-03-04T07:29:58;102046.86;;;3.49;100.00
62948;BME280;51940;52.126;-0.994;2023-03-04T07:32:23;102044.95;;;3.50;100.00
62948;BME280;51940;52.126;-0.994;2023-03-04T07:34:49;102047.50;;;3.51;100.00
62948;BME280;51940;52.126;-0.994;2023-03-04T07:37:14;102048.78;;;3.53;100.00
62948;BME280;51940;52.126;-0.994;2023-03-04T07:39:40;102046.36;;;3.55;100.00
62948;BME280;51940;52.126;-0.994;2023-03-04T07:42:06;102048.69;;;3.56;100.00
62948;BME280;51940;52.126;-0.994;2023-03-04T07:44:32;102050.14;;;3.57;100.00
62948;BME280;51940;52.126;-0.994;2023-03-04T07:46:57;102050.16;;;3.58;100.00
62948;BME280;51940;52.126;-0.994;2023-03-04T07:49:22;102052.50;;;3.59;100.00
62948;BME280;51940;52.126;-0.994;2023-03-04T07:51:47;102056.99;;;3.61;100.00
62948;BME280;51940;52.126;-0.994;2023-03-04T07:54:13;102058.83;;;3.64;100.00
62948;BME280;51940;52.126;-0.994;2023-03-04T07:56:39;102062.23;;;3.66;100.00
62948;BME280;51940;52.126;-0.994;2023-03-04T07:59:04;102062.80;;;3.67;100.00
62948;BME280;51940;52.126;-0.994;2023-03-04T08:01:30;102063.02;;;3.68;100.00
62948;BME280;51940;52.126;-0.994;2023-03-04T08:03:57;102067.10;;;3.69;100.00
62948;BME280;51940;52.126;-0.994;2023-03-04T08:06:22;102068.87;;;3.69;100.00
62948;BME280;51940;52.126;-0.994;2023-03-04T08:08:48;102066.76;;;3.69;100.00
62948;BME280;51940;52.126;-0.994;2023-03-04T08:11:15;102072.77;;;3.70;100.00
62948;BME280;51940;52.126;-0.994;2023-03-04T08:13:40;102076.16;;;3.71;100.00
62948;BME280;51940;52.126;-0.994;2023-03-04T08:16:06;102075.77;;;3.70;100.00
62948;BME280;51940;52.126;-0.994;2023-03-04T08:18:31;102078.41;;;3.70;100.00
62948;BME280;51940;52.126;-0.994;2023-03-04T08:20:57;102082.86;;;3.71;100.00
62948;BME280;51940;52.126;-0.994;2023-03-04T08:23:22;102082.34;;;3.71;100.00
62948;BME280;51940;52.126;-0.994;2023-03-04T08:25:48;102083.90;;;3.71;100.00
62948;BME280;51940;52.126;-0.994;2023-03-04T08:28:13;102079.55;;;3.67;100.00
62948;BME280;51940;52.126;-0.994;2023-03-04T08:30:39;102077.05;;;3.66;100.00
62948;BME280;51940;52.126;-0.994;2023-03-04T08:33:04;102081.46;;;3.66;100.00
62948;BME280;51940;52.126;-0.994;2023-03-04T08:35:30;102079.54;;;3.67;100.00
62948;BME280;51940;52.126;-0.994;2023-03-04T08:37:56;102084.17;;;3.67;100.00
62948;BME280;51940;52.126;-0.994;2023-03-04T08:40:21;102083.15;;;3.69;100.00
62948;BME280;51940;52.126;-0.994;2023-03-04T08:42:48;102087.96;;;3.71;100.00
62948;BME280;51940;52.126;-0.994;2023-03-04T08:45:14;102084.11;;;3.72;100.00
62948;BME280;51940;52.126;-0.994;2023-03-04T08:47:39;102083.42;;;3.73;100.00
62948;BME280;51940;52.126;-0.994;2023-03-04T08:50:05;102079.92;;;3.74;100.00
62948;BME280;51940;52.126;-0.994;2023-03-04T08:52:31;102081.55;;;3.75;100.00
62948;BME280;51940;52.126;-0.994;2023-03-04T08:54:56;102084.10;;;3.76;100.00
62948;BME280;51940;52.126;-0.994;2023-03-04T08:57:22;102076.86;;;3.77;100.00
62948;BME280;51940;52.126;-0.994;2023-03-04T08:59:47;102078.15;;;3.78;100.00
62948;BME280;51940;52.126;-0.994;2023-03-04T09:02:12;102076.08;;;3.80;100.00
62948;BME280;51940;52.126;-0.994;2023-03-04T09:04:37;102076.63;;;3.81;100.00
62948;BME280;51940;52.126;-0.994;2023-03-04T09:07:03;102078.10;;;3.83;100.00
62948;BME280;51940;52.126;-0.994;2023-03-04T09:09:28;102075.15;;;3.84;100.00
62948;BME280;51940;52.126;-0.994;2023-03-04T09:11:54;102080.16;;;3.86;100.00
62948;BME280;51940;52.126;-0.994;2023-03-04T09:14:19;102076.63;;;3.86;100.00
62948;BME280;51940;52.126;-0.994;2023-03-04T09:16:44;102075.44;;;3.88;100.00
62948;BME280;51940;52.126;-0.994;2023-03-04T09:19:09;102077.44;;;3.90;100.00
62948;BME280;51940;52.126;-0.994;2023-03-04T09:21:35;102077.72;;;3.93;100.00
62948;BME280;51940;52.126;-0.994;2023-03-04T09:24:00;102081.52;;;3.96;100.00
62948;BME280;51940;52.126;-0.994;2023-03-04T09:26:26;102081.02;;;3.98;100.00
62948;BME280;51940;52.126;-0.994;2023-03-04T09:28:52;102083.84;;;3.98;100.00
62948;BME280;51940;52.126;-0.994;2023-03-04T09:31:19;102084.23;;;3.99;100.00
62948;BME280;51940;52.126;-0.994;2023-03-04T09:33:44;102081.78;;;4.00;100.00
62948;BME280;51940;52.126;-0.994;2023-03-04T09:36:10;102083.53;;;3.99;100.00
62948;BME280;51940;52.126;-0.994;2023-03-04T09:38:36;102082.64;;;3.99;100.00
62948;BME280;51940;52.126;-0.994;2023-03-04T09:41:07;102082.08;;;3.98;100.00
62948;BME280;51940;52.126;-0.994;2023-03-04T09:43:32;102075.42;;;4.00;100.00
62948;BME280;51940;52.126;-0.994;2023-03-04T09:46:00;102076.96;;;4.03;100.00
62948;BME280;51940;52.126;-0.994;2023-03-04T09:48:27;102078.29;;;4.07;100.00
62948;BME280;51940;52.126;-0.994;2023-03-04T09:54:24;102079.13;;;4.11;100.00
62948;BME280;51940;52.126;-0.994;2023-03-04T09:56:24;102082.17;;;4.13;100.00
62948;BME280;51940;52.126;-0.994;2023-03-04T09:58:53;102077.82;;;4.15;100.00
62948;BME280;51940;52.126;-0.994;2023-03-04T10:01:23;102072.85;;;4.20;100.00
62948;BME280;51940;52.126;-0.994;2023-03-04T10:03:54;102076.87;;;4.25;100.00
62948;BME280;51940;52.126;-0.994;2023-03-04T10:06:21;102073.98;;;4.29;100.00
62948;BME280;51940;52.126;-0.994;2023-03-04T10:09:00;102073.35;;;4.31;100.00
62948;BME280;51940;52.126;-0.994;2023-03-04T10:11:28;102068.77;;;4.32;100.00
62948;BME280;51940;52.126;-0.994;2023-03-04T10:21:44;102057.20;;;4.41;100.00
62948;BME280;51940;52.126;-0.994;2023-03-04T10:24:10;102065.45;;;4.45;100.00
62948;BME280;51940;52.126;-0.994;2023-03-04T10:26:37;102064.95;;;4.46;100.00
62948;BME280;51940;52.126;-0.994;2023-03-04T10:29:03;102067.66;;;4.48;100.00
62948;BME280;51940;52.126;-0.994;2023-03-04T10:33:57;102064.20;;;4.51;100.00
62948;BME280;51940;52.126;-0.994;2023-03-04T10:39:39;102067.58;;;4.58;100.00
62948;BME280;51940;52.126;-0.994;2023-03-04T10:41:45;102067.63;;;4.61;100.00
62948;BME280;51940;52.126;-0.994;2023-03-04T10:44:17;102066.13;;;4.64;100.00
62948;BME280;51940;52.126;-0.994;2023-03-04T10:46:44;102066.89;;;4.66;100.00
62948;BME280;51940;52.126;-0.994;2023-03-04T10:49:10;102063.83;;;4.70;100.00
62948;BME280;51940;52.126;-0.994;2023-03-04T10:51:50;102061.38;;;4.71;100.00
62948;BME280;51940;52.126;-0.994;2023-03-04T10:54:26;102059.17;;;4.68;100.00
62948;BME280;51940;52.126;-0.994;2023-03-04T10:56:55;102055.24;;;4.67;100.00
62948;BME280;51940;52.126;-0.994;2023-03-04T11:07:18;102050.52;;;5.09;100.00
62948;BME280;51940;52.126;-0.994;2023-03-04T11:09:44;102040.19;;;5.21;100.00
62948;BME280;51940;52.126;-0.994;2023-03-04T11:12:11;102035.42;;;5.36;100.00
62948;BME280;51940;52.126;-0.994;2023-03-04T11:14:41;102033.63;;;5.50;100.00
62948;BME280;51940;52.126;-0.994;2023-03-04T11:17:18;102033.92;;;5.63;100.00
62948;BME280;51940;52.126;-0.994;2023-03-04T11:19:44;102035.70;;;5.72;100.00
62948;BME280;51940;52.126;-0.994;2023-03-04T11:22:12;102037.57;;;5.76;100.00
62948;BME280;51940;52.126;-0.994;2023-03-04T11:24:39;102034.28;;;5.80;100.00
62948;BME280;51940;52.126;-0.994;2023-03-04T11:27:05;102036.34;;;5.84;100.00
62948;BME280;51940;52.126;-0.994;2023-03-04T11:29:47;102033.23;;;5.89;100.00
62948;BME280;51940;52.126;-0.994;2023-03-04T11:32:26;102037.13;;;5.95;100.00
62948;BME280;51940;52.126;-0.994;2023-03-04T11:37:20;102024.52;;;6.10;100.00
62948;BME280;51940;52.126;-0.994;2023-03-04T11:40:32;102015.20;;;6.14;100.00
62948;BME280;51940;52.126;-0.994;2023-03-04T11:42:39;102008.95;;;6.11;100.00
62948;BME280;51940;52.126;-0.994;2023-03-04T11:45:13;102003.83;;;6.12;100.00
62948;BME280;51940;52.126;-0.994;2023-03-04T11:57:37;101998.16;;;6.30;100.00
62948;BME280;51940;52.126;-0.994;2023-03-04T12:08:01;101975.64;;;6.30;100.00
62948;BME280;51940;52.126;-0.994;2023-03-04T12:18:26;101962.96;;;6.34;100.00
62948;BME280;51940;52.126;-0.994;2023-03-04T12:41:24;101941.24;;;6.48;100.00
62948;BME280;51940;52.126;-0.994;2023-03-04T12:44:03;101938.94;;;6.48;100.00
62948;BME280;51940;52.126;-0.994;2023-03-04T12:46:39;101939.01;;;6.51;100.00
62948;BME280;51940;52.126;-0.994;2023-03-04T12:51:41;101935.04;;;6.47;100.00
62948;BME280;51940;52.126;-0.994;2023-03-04T12:56:42;101922.80;;;6.27;100.00
62948;BME280;51940;52.126;-0.994;2023-03-04T12:59:17;101917.42;;;6.24;100.00
62948;BME280;51940;52.126;-0.994;2023-03-04T13:07:12;101914.20;;;6.21;100.00
62948;BME280;51940;52.126;-0.994;2023-03-04T13:12:16;101907.45;;;6.20;100.00
62948;BME280;51940;52.126;-0.994;2023-03-04T13:17:39;101900.36;;;6.11;100.00
62948;BME280;51940;52.126;-0.994;2023-03-04T13:25:28;101890.24;;;6.09;100.00
62948;BME280;51940;52.126;-0.994;2023-03-04T13:31:13;101886.17;;;6.09;100.00
62948;BME280;51940;52.126;-0.994;2023-03-04T13:35:47;101890.11;;;6.12;100.00
62948;BME280;51940;52.126;-0.994;2023-03-04T13:41:05;101881.84;;;6.15;100.00
62948;BME280;51940;52.126;-0.994;2023-03-04T13:43:38;101883.55;;;6.12;100.00
62948;BME280;51940;52.126;-0.994;2023-03-04T13:53:45;101881.08;;;6.02;100.00
62948;BME280;51940;52.126;-0.994;2023-03-04T13:58:42;101878.53;;;5.99;100.00
62948;BME280;51940;52.126;-0.994;2023-03-04T14:01:27;101879.73;;;5.97;100.00
62948;BME280;51940;52.126;-0.994;2023-03-04T14:03:54;101880.25;;;5.97;100.00
62948;BME280;51940;52.126;-0.994;2023-03-04T14:06:29;101881.46;;;5.94;100.00
62948;BME280;51940;52.126;-0.994;2023-03-04T14:08:55;101880.03;;;5.94;100.00
62948;BME280;51940;52.126;-0.994;2023-03-04T14:13:46;101874.53;;;5.93;100.00
62948;BME280;51940;52.126;-0.994;2023-03-04T14:16:12;101872.22;;;5.92;100.00
62948;BME280;51940;52.126;-0.994;2023-03-04T14:18:43;101871.16;;;5.92;100.00
62948;BME280;51940;52.126;-0.994;2023-03-04T14:21:09;101866.94;;;5.94;100.00
62948;BME280;51940;52.126;-0.994;2023-03-04T14:23:37;101859.52;;;5.96;100.00
62948;BME280;51940;52.126;-0.994;2023-03-04T14:26:08;101854.41;;;5.98;100.00
62948;BME280;51940;52.126;-0.994;2023-03-04T14:28:41;101851.23;;;5.98;100.00
62948;BME280;51940;52.126;-0.994;2023-03-04T14:31:09;101851.23;;;5.97;100.00
62948;BME280;51940;52.126;-0.994;2023-03-04T14:33:39;101851.51;;;5.93;100.00
62948;BME280;51940;52.126;-0.994;2023-03-04T14:36:12;101845.37;;;5.88;100.00
62948;BME280;51940;52.126;-0.994;2023-03-04T14:38:39;101849.56;;;5.85;100.00